createdAt,value
2023-01-22T00:01:09.378Z,2.58
2023-01-22T00:03:38.052Z,5.22
2023-01-22T00:06:05.807Z,2.42
2023-01-22T00:08:35.409Z,3.42
2023-01-22T00:11:02.487Z,3.25
2023-01-22T00:13:30.173Z,2.60
2023-01-22T00:15:58.598Z,2.55
2023-01-22T00:18:26.012Z,3.85
2023-01-22T00:20:55.431Z,3.00
2023-01-22T00:23:23.830Z,2.55
2023-01-22T00:26:00.176Z,3.17
2023-01-22T00:28:27.204Z,3.60
2023-01-22T00:31:01.215Z,2.78
2023-01-22T00:33:29.243Z,2.50
2023-01-22T00:35:56.486Z,2.50
2023-01-22T00:38:23.399Z,2.83
2023-01-22T00:40:50.614Z,2.95
2023-01-22T00:43:17.621Z,3.15
2023-01-22T00:45:44.662Z,2.60
2023-01-22T00:48:11.523Z,2.47
2023-01-22T00:50:38.586Z,2.58
2023-01-22T00:53:05.476Z,2.47
2023-01-22T00:55:32.399Z,2.58
2023-01-22T00:57:59.315Z,2.53
2023-01-22T01:00:26.421Z,2.22
2023-01-22T01:03:12.111Z,4.65
2023-01-22T01:05:39.013Z,2.55
2023-01-22T01:08:06.331Z,4.10
2023-01-22T01:10:33.363Z,6.63
2023-01-22T01:13:00.407Z,3.92
2023-01-22T01:15:27.313Z,3.15
2023-01-22T01:17:54.229Z,2.83
2023-01-22T01:20:21.138Z,3.08
2023-01-22T01:22:48.030Z,3.90
2023-01-22T01:25:14.947Z,4.05
2023-01-22T01:27:41.846Z,3.10
2023-01-22T01:30:09.445Z,4.93
2023-01-22T01:32:36.321Z,4.57
2023-01-22T01:35:03.259Z,2.55
2023-01-22T01:37:30.099Z,3.33
2023-01-22T01:39:56.939Z,5.65
2023-01-22T01:42:31.913Z,3.25
2023-01-22T01:45:21.834Z,3.42
2023-01-22T01:48:21.096Z,3.90
2023-01-22T01:50:54.424Z,3.55
2023-01-22T01:53:21.312Z,3.33
2023-01-22T01:55:49.014Z,3.40
2023-01-22T01:58:21.881Z,3.05
2023-01-22T02:00:55.309Z,4.68
2023-01-22T02:03:22.737Z,3.83
2023-01-22T02:05:49.692Z,3.88
2023-01-22T02:08:17.125Z,3.22
2023-01-22T02:10:44.786Z,4.22
2023-01-22T02:13:17.129Z,3.28
2023-01-22T02:15:44.251Z,3.53
2023-01-22T02:18:11.374Z,2.97
2023-01-22T02:20:40.078Z,4.72
2023-01-22T02:23:07.574Z,2.92
2023-01-22T02:25:34.560Z,4.13
2023-01-22T02:28:01.464Z,5.72
2023-01-22T02:30:28.765Z,3.22
2023-01-22T02:32:55.674Z,2.85
2023-01-22T02:35:22.534Z,3.17
2023-01-22T02:37:49.523Z,3.05
2023-01-22T02:40:16.905Z,2.97
2023-01-22T02:42:44.037Z,3.13
2023-01-22T02:45:11.384Z,4.38
2023-01-22T02:47:38.311Z,3.00
2023-01-22T02:50:05.739Z,3.92
2023-01-22T02:52:32.619Z,3.97
2023-01-22T02:54:59.593Z,3.88
2023-01-22T02:57:26.526Z,3.58
2023-01-22T02:59:53.337Z,3.58
2023-01-22T03:02:20.335Z,5.85
2023-01-22T03:04:50.381Z,3.88
2023-01-22T03:07:18.487Z,3.50
2023-01-22T03:09:45.926Z,2.83
2023-01-22T03:12:13.100Z,4.57
2023-01-22T03:14:58.277Z,3.92
2023-01-22T03:17:43.584Z,3.08
2023-01-22T03:20:31.921Z,2.75
2023-01-22T03:22:58.821Z,4.50
2023-01-22T03:25:25.688Z,3.10
2023-01-22T03:28:15.223Z,2.88
2023-01-22T03:30:42.039Z,2.80
2023-01-22T03:33:08.915Z,3.00
2023-01-22T03:35:35.742Z,3.55
2023-01-22T03:38:02.550Z,2.50
2023-01-22T03:40:29.514Z,3.20
2023-01-22T03:42:56.373Z,4.18
2023-01-22T03:45:23.185Z,2.65
2023-01-22T03:47:51.657Z,3.13
2023-01-22T03:50:18.835Z,3.80
2023-01-22T03:52:45.873Z,2.60
2023-01-22T03:55:12.725Z,2.47
2023-01-22T03:57:39.532Z,4.88
2023-01-22T04:00:07.882Z,4.35
2023-01-22T04:02:34.947Z,2.78
2023-01-22T04:05:01.829Z,2.85
2023-01-22T04:07:28.740Z,3.03
2023-01-22T04:09:55.575Z,3.00
2023-01-22T04:12:22.391Z,3.17
2023-01-22T04:14:49.182Z,3.05
2023-01-22T04:17:16.028Z,2.30
2023-01-22T04:19:42.886Z,2.70
2023-01-22T04:22:09.678Z,2.55
2023-01-22T04:24:37.003Z,4.93
2023-01-22T04:27:03.920Z,3.05
2023-01-22T04:29:30.705Z,2.67
2023-01-22T04:31:57.604Z,4.93
2023-01-22T04:34:24.439Z,2.85
2023-01-22T04:36:51.277Z,3.47
2023-01-22T04:39:18.126Z,2.53
2023-01-22T04:41:45.220Z,2.85
2023-01-22T04:44:12.241Z,3.05
2023-01-22T04:46:39.089Z,2.53
2023-01-22T04:49:05.887Z,2.38
2023-01-22T04:51:32.679Z,2.10
2023-01-22T04:53:59.487Z,2.80
2023-01-22T04:56:26.309Z,2.40
2023-01-22T04:58:53.092Z,2.42
2023-01-22T05:01:19.975Z,2.35
2023-01-22T05:03:46.868Z,2.40
2023-01-22T05:06:13.742Z,3.95
2023-01-22T05:08:40.723Z,2.58
2023-01-22T05:11:07.595Z,2.40
2023-01-22T05:13:34.470Z,2.22
2023-01-22T05:16:01.385Z,2.33
2023-01-22T05:18:28.347Z,2.22
2023-01-22T05:20:55.176Z,2.58
2023-01-22T05:23:21.969Z,2.10
2023-01-22T05:25:50.296Z,2.45
2023-01-22T05:28:17.183Z,2.75
2023-01-22T05:30:44.047Z,4.93
2023-01-22T05:33:11.544Z,1.90
2023-01-22T05:35:38.694Z,3.03
2023-01-22T05:38:05.512Z,3.80
2023-01-22T05:40:32.374Z,4.70
2023-01-22T05:42:59.221Z,3.45
2023-01-22T05:45:26.049Z,4.53
2023-01-22T05:47:53.874Z,4.88
2023-01-22T05:50:22.194Z,9.45
2023-01-22T05:52:54.834Z,4.30
2023-01-22T05:55:21.873Z,4.00
2023-01-22T05:57:49.181Z,3.20
2023-01-22T06:00:17.222Z,3.35
2023-01-22T06:02:44.581Z,5.55
2023-01-22T06:05:11.632Z,2.65
2023-01-22T06:07:38.551Z,4.63
2023-01-22T06:10:05.950Z,5.80
2023-01-22T06:12:33.299Z,2.72
2023-01-22T06:15:00.149Z,2.22
2023-01-22T06:17:26.954Z,2.28
2023-01-22T06:19:53.790Z,2.28
2023-01-22T06:22:20.713Z,3.10
2023-01-22T06:24:47.609Z,2.00
2023-01-22T06:27:14.586Z,2.13
2023-01-22T06:29:41.404Z,2.25
2023-01-22T06:32:08.848Z,2.47
2023-01-22T06:34:35.759Z,2.13
2023-01-22T06:37:02.886Z,2.08
2023-01-22T06:39:29.795Z,2.30
2023-01-22T06:41:56.684Z,2.20
2023-01-22T06:44:23.611Z,1.85
2023-01-22T06:46:50.656Z,2.72
2023-01-22T06:49:17.560Z,1.70
2023-01-22T06:51:44.344Z,3.20
2023-01-22T06:54:14.381Z,1.80
2023-01-22T06:56:41.364Z,2.00
2023-01-22T06:59:08.440Z,2.00
2023-01-22T07:01:35.555Z,1.88
2023-01-22T07:04:02.728Z,2.00
2023-01-22T07:06:29.902Z,2.00
2023-01-22T07:08:57.222Z,1.83
2023-01-22T07:11:24.101Z,1.90
2023-01-22T07:13:50.961Z,2.20
2023-01-22T07:16:17.894Z,1.80
2023-01-22T07:18:44.789Z,2.05
2023-01-22T07:21:13.135Z,1.67
2023-01-22T07:23:40.480Z,1.95
2023-01-22T07:26:07.367Z,3.40
2023-01-22T07:28:34.566Z,2.50
2023-01-22T07:31:03.784Z,2.42
2023-01-22T07:33:30.754Z,1.67
2023-01-22T07:35:58.385Z,1.50
2023-01-22T07:38:28.020Z,1.75
2023-01-22T07:41:00.356Z,1.73
2023-01-22T07:43:27.201Z,1.60
2023-01-22T07:45:54.326Z,1.45
2023-01-22T07:48:21.293Z,1.60
2023-01-22T07:50:48.245Z,1.50
2023-01-22T07:53:15.200Z,1.55
2023-01-22T07:55:42.126Z,1.83
2023-01-22T07:58:09.061Z,1.65
2023-01-22T08:00:36.247Z,1.60
2023-01-22T08:03:07.242Z,2.28
2023-01-22T08:05:34.463Z,11.48
2023-01-22T08:08:01.507Z,2.65
2023-01-22T08:10:28.514Z,5.28
2023-01-22T08:12:55.347Z,2.33
2023-01-22T08:15:22.337Z,2.60
2023-01-22T08:17:51.354Z,4.18
2023-01-22T08:20:18.664Z,10.55
2023-01-22T08:22:45.954Z,10.40
2023-01-22T08:25:13.036Z,7.47
2023-01-22T08:27:39.916Z,7.43
2023-01-22T08:30:09.104Z,10.18
2023-01-22T08:32:36.040Z,21.20
2023-01-22T08:35:02.953Z,31.42
2023-01-22T08:37:29.841Z,13.32
2023-01-22T08:39:56.770Z,35.65
2023-01-22T08:42:23.857Z,44.08
2023-01-22T08:44:50.767Z,20.10
2023-01-22T08:47:17.785Z,13.23
2023-01-22T08:49:44.712Z,20.77
2023-01-22T08:52:11.634Z,4.45
2023-01-22T08:54:38.552Z,13.50
2023-01-22T08:57:05.645Z,13.80
2023-01-22T08:59:32.472Z,18.80
2023-01-22T09:02:00.285Z,13.27
2023-01-22T09:04:27.779Z,5.57
2023-01-22T09:06:55.393Z,10.40
2023-01-22T09:09:22.688Z,5.30
2023-01-22T09:11:49.874Z,17.52
2023-01-22T09:14:16.932Z,32.95
2023-01-22T09:16:43.903Z,7.70
2023-01-22T09:19:11.425Z,18.30
2023-01-22T09:21:38.585Z,16.92
2023-01-22T09:24:06.811Z,19.75
2023-01-22T09:26:34.347Z,10.02
2023-01-22T09:29:01.878Z,27.25
2023-01-22T09:31:29.024Z,51.55
2023-01-22T09:33:56.109Z,18.65
2023-01-22T09:36:23.033Z,32.50
2023-01-22T09:38:50.156Z,24.35
2023-01-22T09:41:25.915Z,13.93
2023-01-22T09:43:57.931Z,15.40
2023-01-22T09:46:37.099Z,18.35
2023-01-22T09:49:12.041Z,20.30
2023-01-22T09:51:39.688Z,22.38
2023-01-22T09:54:09.095Z,13.68
2023-01-22T09:56:42.008Z,19.23
2023-01-22T09:59:16.592Z,18.05
2023-01-22T10:01:48.251Z,45.33
2023-01-22T10:04:29.667Z,18.05
2023-01-22T10:06:59.068Z,17.35
2023-01-22T10:09:31.601Z,29.27
2023-01-22T10:12:00.132Z,22.73
2023-01-22T10:14:29.847Z,19.33
2023-01-22T10:17:00.600Z,25.27
2023-01-22T10:19:45.593Z,15.77
2023-01-22T10:22:19.707Z,20.85
2023-01-22T10:24:46.657Z,13.70
2023-01-22T10:27:17.388Z,21.60
2023-01-22T10:30:14.882Z,18.55
2023-01-22T10:32:42.263Z,20.23
2023-01-22T10:35:11.998Z,18.05
2023-01-22T10:37:46.905Z,14.55
2023-01-22T10:40:21.963Z,16.00
2023-01-22T10:43:01.498Z,7.75
2023-01-22T10:45:28.647Z,10.43
2023-01-22T10:48:16.096Z,9.07
2023-01-22T10:50:45.527Z,8.98
2023-01-22T10:53:19.691Z,6.00
2023-01-22T10:55:53.341Z,6.45
2023-01-22T10:58:23.535Z,8.70
2023-01-22T11:00:59.828Z,8.70
2023-01-22T11:03:33.654Z,6.28
2023-01-22T11:06:05.793Z,31.85
2023-01-22T11:08:43.414Z,7.43
2023-01-22T11:11:13.278Z,6.22
2023-01-22T11:13:58.817Z,3.45
2023-01-22T11:16:25.795Z,7.25
2023-01-22T11:18:55.786Z,10.98
2023-01-22T11:21:34.223Z,8.95
2023-01-22T11:24:28.423Z,13.85
2023-01-22T11:27:22.583Z,13.38
2023-01-22T11:30:08.137Z,4.05
2023-01-22T11:33:16.135Z,4.18
2023-01-22T11:35:58.967Z,4.63
2023-01-22T11:38:36.724Z,3.95
2023-01-22T11:41:16.788Z,11.90
2023-01-22T11:43:56.023Z,5.63
2023-01-22T11:46:28.788Z,15.50
2023-01-22T11:49:33.843Z,50.10
2023-01-22T11:52:31.558Z,52.15
2023-01-22T11:55:07.499Z,52.22
2023-01-22T11:57:39.168Z,39.08
2023-01-22T12:00:27.861Z,23.05
2023-01-22T12:03:28.844Z,26.15
2023-01-22T12:06:16.569Z,25.58
2023-01-22T12:08:46.420Z,17.80
2023-01-22T12:11:18.982Z,18.63
2023-01-22T12:14:30.711Z,14.85
2023-01-22T12:17:05.111Z,15.68
2023-01-22T12:20:08.635Z,11.82
2023-01-22T12:22:52.663Z,25.98
2023-01-22T12:25:29.041Z,28.17
2023-01-22T12:28:03.059Z,21.30
2023-01-22T12:31:00.430Z,20.52
2023-01-22T12:33:31.381Z,21.80
2023-01-22T12:36:02.284Z,19.45
2023-01-22T12:38:48.050Z,18.55
2023-01-22T12:41:48.911Z,12.88
2023-01-22T12:44:37.876Z,11.65
2023-01-22T12:47:35.249Z,30.63
2023-01-22T12:50:04.695Z,11.80
2023-01-22T12:52:32.318Z,15.43
2023-01-22T12:55:00.315Z,17.10
2023-01-22T12:57:39.919Z,13.45
2023-01-22T13:00:30.550Z,8.95
2023-01-22T13:02:58.886Z,7.13
2023-01-22T13:05:31.552Z,5.38
2023-01-22T13:08:39.335Z,12.02
2023-01-22T13:11:13.084Z,9.00
2023-01-22T13:13:46.031Z,8.68
2023-01-22T13:16:15.821Z,6.03
2023-01-22T13:18:47.963Z,4.57
2023-01-22T13:21:17.756Z,5.18
2023-01-22T13:23:47.311Z,6.93
2023-01-22T13:26:27.426Z,16.38
2023-01-22T13:29:20.583Z,9.02
2023-01-22T13:32:16.616Z,4.53
2023-01-22T13:34:43.601Z,2.88
2023-01-22T13:37:24.923Z,4.22
2023-01-22T13:42:19.083Z,6.40
2023-01-22T13:44:52.346Z,6.40
2023-01-22T13:47:30.444Z,14.45
2023-01-22T13:49:57.882Z,17.42
2023-01-22T13:52:25.526Z,6.53
2023-01-22T13:55:07.783Z,3.97
2023-01-22T13:57:34.752Z,15.23
2023-01-22T14:00:02.919Z,4.35
2023-01-22T14:02:33.005Z,3.80
2023-01-22T14:05:00.587Z,6.68
2023-01-22T14:07:28.692Z,22.88
2023-01-22T14:09:57.662Z,7.82
2023-01-22T14:12:27.574Z,48.63
2023-01-22T14:14:55.247Z,7.68
2023-01-22T14:17:22.171Z,5.07
2023-01-22T14:19:49.144Z,15.25
2023-01-22T14:22:16.263Z,5.00
2023-01-22T14:24:43.135Z,2.60
2023-01-22T14:27:10.039Z,4.57
2023-01-22T14:29:37.094Z,6.88
2023-01-22T14:32:04.180Z,6.32
2023-01-22T14:34:31.004Z,2.15
2023-01-22T14:36:57.918Z,2.35
2023-01-22T14:39:24.870Z,3.30
2023-01-22T14:41:51.803Z,0.93
2023-01-22T14:44:19.540Z,6.75
2023-01-22T14:46:46.534Z,9.65
2023-01-22T14:49:13.465Z,11.45
2023-01-22T14:51:40.306Z,21.27
2023-01-22T14:54:07.304Z,9.70
2023-01-22T14:56:34.348Z,4.15
2023-01-22T14:59:01.366Z,4.30
2023-01-22T15:01:28.388Z,1.52
2023-01-22T15:03:55.399Z,5.82
2023-01-22T15:06:24.174Z,4.55
2023-01-22T15:08:51.324Z,9.98
2023-01-22T15:11:18.189Z,9.63
2023-01-22T15:13:45.152Z,2.85
2023-01-22T15:16:12.478Z,3.80
2023-01-22T15:18:40.020Z,3.95
2023-01-22T15:21:07.458Z,1.83
2023-01-22T15:23:34.937Z,11.23
2023-01-22T15:26:08.459Z,6.65
2023-01-22T15:28:36.141Z,5.28
2023-01-22T15:31:08.145Z,14.38
2023-01-22T15:33:36.642Z,23.20
2023-01-22T15:36:05.510Z,18.38
2023-01-22T15:38:32.531Z,15.60
2023-01-22T15:41:07.353Z,22.42
2023-01-22T15:43:34.320Z,48.67
2023-01-22T15:46:01.348Z,26.15
2023-01-22T15:48:28.430Z,23.38
2023-01-22T15:50:55.306Z,21.17
2023-01-22T15:53:22.411Z,30.13
2023-01-22T15:55:50.645Z,27.70
2023-01-22T15:58:17.562Z,12.98
2023-01-22T16:00:44.514Z,18.13
2023-01-22T16:03:12.454Z,19.55
2023-01-22T16:05:39.420Z,12.23
2023-01-22T16:08:06.570Z,17.85
2023-01-22T16:10:36.644Z,25.85
2023-01-22T16:13:03.766Z,11.98
2023-01-22T16:15:30.760Z,19.52
2023-01-22T16:17:58.370Z,11.65
2023-01-22T16:20:25.420Z,19.55
2023-01-22T16:22:52.522Z,20.67
2023-01-22T16:25:19.818Z,17.42
2023-01-22T16:27:46.880Z,17.02
2023-01-22T16:30:16.881Z,23.02
2023-01-22T16:32:46.981Z,31.55
2023-01-22T16:35:14.055Z,32.63
2023-01-22T16:37:44.653Z,17.65
2023-01-22T16:40:15.934Z,16.17
2023-01-22T16:42:59.024Z,15.60
2023-01-22T16:45:26.312Z,19.77
2023-01-22T16:47:53.861Z,29.88
2023-01-22T16:50:21.276Z,45.42
2023-01-22T16:52:48.582Z,29.83
2023-01-22T16:55:15.607Z,34.97
2023-01-22T16:57:42.733Z,14.75
2023-01-22T17:00:10.742Z,19.30
2023-01-22T17:02:38.046Z,17.08
2023-01-22T17:05:09.162Z,17.10
2023-01-22T17:10:06.475Z,15.40
2023-01-22T17:12:34.075Z,10.50
2023-01-22T17:15:01.142Z,9.32
2023-01-22T17:17:28.175Z,13.48
2023-01-22T17:19:55.785Z,12.73
2023-01-22T17:22:24.406Z,17.48
2023-01-22T17:24:52.830Z,23.25
2023-01-22T17:27:21.268Z,33.25
2023-01-22T17:29:48.237Z,20.33
2023-01-22T17:32:15.228Z,22.70
2023-01-22T17:34:42.410Z,20.38
2023-01-22T17:37:13.899Z,14.27
2023-01-22T17:39:43.126Z,14.32
2023-01-22T17:42:10.159Z,15.52
2023-01-22T17:44:38.276Z,11.68
2023-01-22T17:47:06.068Z,10.77
2023-01-22T17:49:35.190Z,14.30
2023-01-22T17:52:03.229Z,17.42
2023-01-22T17:54:30.480Z,20.33
2023-01-22T17:56:57.759Z,15.57
2023-01-22T17:59:27.165Z,12.48
2023-01-22T18:01:54.455Z,11.27
2023-01-22T18:04:23.192Z,15.88
2023-01-22T18:06:54.041Z,16.80
2023-01-22T18:09:22.530Z,10.35
2023-01-22T18:11:49.990Z,7.80
2023-01-22T18:14:25.307Z,7.55
2023-01-22T18:16:52.731Z,23.58
2023-01-22T18:19:23.544Z,13.02
2023-01-22T18:21:50.860Z,7.25
2023-01-22T18:24:18.418Z,11.38
2023-01-22T18:26:45.435Z,13.55
2023-01-22T18:29:12.468Z,16.35
2023-01-22T18:31:39.993Z,6.05
2023-01-22T18:34:08.046Z,13.15
2023-01-22T18:36:38.271Z,22.23
2023-01-22T18:39:09.139Z,25.80
2023-01-22T18:41:37.146Z,21.77
2023-01-22T18:44:04.448Z,31.50
2023-01-22T18:46:34.210Z,23.05
2023-01-22T18:49:03.869Z,18.65
2023-01-22T18:51:32.663Z,19.42
2023-01-22T18:54:01.378Z,18.00
2023-01-22T18:56:28.610Z,15.57
2023-01-22T18:58:56.734Z,36.55
2023-01-22T19:01:29.970Z,24.63
2023-01-22T19:04:00.018Z,19.05
2023-01-22T19:06:30.127Z,47.70
2023-01-22T19:09:02.933Z,49.40
2023-01-22T19:11:33.198Z,71.10
2023-01-22T19:14:00.832Z,72.68
2023-01-22T19:16:28.653Z,33.63
2023-01-22T19:18:57.461Z,42.13
2023-01-22T19:21:26.374Z,39.78
2023-01-22T19:23:57.132Z,29.10
2023-01-22T19:26:32.966Z,24.98
2023-01-22T19:29:07.777Z,28.83
2023-01-22T19:31:38.482Z,41.47
2023-01-22T19:34:07.453Z,27.88
2023-01-22T19:36:38.559Z,14.40
2023-01-22T19:39:12.031Z,17.05
2023-01-22T19:41:40.452Z,32.80
2023-01-22T19:44:09.393Z,13.65
2023-01-22T19:46:40.655Z,12.82
2023-01-22T19:49:09.233Z,35.08
2023-01-22T19:51:37.194Z,9.18
2023-01-22T19:54:08.376Z,8.27
2023-01-22T19:56:37.454Z,9.52
2023-01-22T19:59:11.299Z,8.00
2023-01-22T20:01:39.748Z,8.30
2023-01-22T20:04:14.309Z,8.02
2023-01-22T20:06:44.827Z,7.40
2023-01-22T20:09:14.901Z,19.42
2023-01-22T20:11:42.241Z,4.18
2023-01-22T20:14:10.606Z,5.18
2023-01-22T20:16:37.900Z,4.07
2023-01-22T20:19:05.273Z,3.60
2023-01-22T20:21:37.008Z,3.33
2023-01-22T20:24:08.009Z,5.38
2023-01-22T20:26:38.128Z,2.83
2023-01-22T20:29:06.603Z,2.63
2023-01-22T20:31:34.638Z,2.70
2023-01-22T20:34:03.553Z,2.65
2023-01-22T20:36:32.942Z,3.85
2023-01-22T20:39:02.659Z,4.10
2023-01-22T20:41:31.318Z,2.00
2023-01-22T20:43:58.933Z,8.88
2023-01-22T20:46:28.803Z,2.25
2023-01-22T20:49:00.164Z,2.65
2023-01-22T20:51:29.386Z,2.67
2023-01-22T20:53:58.379Z,4.10
2023-01-22T20:56:31.454Z,4.95
2023-01-22T20:59:10.714Z,24.88
2023-01-22T21:01:38.116Z,23.92
2023-01-22T21:04:07.390Z,46.63
2023-01-22T21:06:38.988Z,13.35
2023-01-22T21:09:09.416Z,8.98
2023-01-22T21:11:38.247Z,13.70
2023-01-22T21:14:07.984Z,37.53
2023-01-22T21:16:38.468Z,18.05
2023-01-22T21:19:27.665Z,22.55
2023-01-22T21:21:55.826Z,19.85
2023-01-22T21:24:24.851Z,15.15
2023-01-22T21:26:52.175Z,13.82
2023-01-22T21:29:24.209Z,28.65
2023-01-22T21:31:53.279Z,17.52
2023-01-22T21:34:23.469Z,29.63
2023-01-22T21:36:55.786Z,15.10
2023-01-22T21:39:25.229Z,10.68
2023-01-22T21:42:12.957Z,12.95
2023-01-22T21:45:12.904Z,8.10
2023-01-22T21:47:40.098Z,4.82
2023-01-22T21:50:12.606Z,8.50
2023-01-22T21:52:40.228Z,12.82
2023-01-22T21:55:08.634Z,5.97
2023-01-22T21:57:38.222Z,6.70
2023-01-22T22:00:06.289Z,4.47
2023-01-22T22:02:33.350Z,3.83
2023-01-22T22:05:01.177Z,7.97
2023-01-22T22:07:28.309Z,3.75
2023-01-22T22:09:57.801Z,3.47
2023-01-22T22:12:26.311Z,2.90
2023-01-22T22:14:54.269Z,7.25
2023-01-22T22:17:21.275Z,3.38
2023-01-22T22:19:48.451Z,2.65
2023-01-22T22:22:17.261Z,3.63
2023-01-22T22:24:44.238Z,3.65
2023-01-22T22:27:13.371Z,2.60
2023-01-22T22:29:40.503Z,3.20
2023-01-22T22:32:07.833Z,2.45
2023-01-22T22:34:35.132Z,2.72
2023-01-22T22:37:02.357Z,3.45
2023-01-22T22:39:29.636Z,3.47
2023-01-22T22:41:56.662Z,5.85
2023-01-22T22:44:23.957Z,2.85
2023-01-22T22:46:51.064Z,2.15
2023-01-22T22:49:18.261Z,3.17
2023-01-22T22:51:47.282Z,2.35
2023-01-22T22:54:17.457Z,3.95
2023-01-22T22:56:46.087Z,2.63
2023-01-22T22:59:13.551Z,2.50
2023-01-22T23:01:41.276Z,2.05
2023-01-22T23:04:09.037Z,3.05
2023-01-22T23:06:36.794Z,4.07
2023-01-22T23:09:06.634Z,1.77
2023-01-22T23:11:35.024Z,2.50
2023-01-22T23:14:02.979Z,2.95
2023-01-22T23:16:32.657Z,2.28
2023-01-22T23:19:03.094Z,2.55
2023-01-22T23:21:30.236Z,2.70
2023-01-22T23:23:57.678Z,6.85
2023-01-22T23:26:30.132Z,1.80
2023-01-22T23:29:00.845Z,1.83
2023-01-22T23:31:29.959Z,2.10
2023-01-22T23:33:57.299Z,2.65
2023-01-22T23:36:26.366Z,2.85
2023-01-22T23:38:53.841Z,1.95
2023-01-22T23:41:21.702Z,2.10
2023-01-22T23:43:49.054Z,1.92
2023-01-22T23:46:27.979Z,2.03
2023-01-22T23:48:56.326Z,1.80
2023-01-22T23:51:23.828Z,2.10
2023-01-22T23:53:52.131Z,1.70
2023-01-22T23:56:23.781Z,1.50
2023-01-22T23:58:54.123Z,1.77
